createdAt,value
2023-03-04T00:02:14.256Z,4.00
2023-03-04T00:04:41.093Z,5.68
2023-03-04T00:07:08.061Z,4.35
2023-03-04T00:09:34.927Z,3.38
2023-03-04T00:12:01.710Z,3.95
2023-03-04T00:14:30.426Z,5.57
2023-03-04T00:16:57.435Z,4.22
2023-03-04T00:19:24.208Z,5.13
2023-03-04T00:21:50.998Z,3.92
2023-03-04T00:24:17.790Z,5.25
2023-03-04T00:26:44.607Z,3.70
2023-03-04T00:29:11.388Z,3.75
2023-03-04T00:31:38.328Z,4.10
2023-03-04T00:34:05.139Z,4.85
2023-03-04T00:36:31.906Z,4.38
2023-03-04T00:38:58.776Z,3.75
2023-03-04T00:41:25.567Z,3.88
2023-03-04T00:43:52.395Z,3.92
2023-03-04T00:46:19.363Z,3.95
2023-03-04T00:48:46.156Z,5.15
2023-03-04T00:51:12.952Z,4.68
2023-03-04T00:53:39.941Z,4.35
2023-03-04T00:56:07.245Z,4.07
2023-03-04T00:58:34.113Z,3.80
2023-03-04T01:01:01.107Z,5.07
2023-03-04T01:03:31.329Z,2.97
2023-03-04T01:05:58.723Z,4.63
2023-03-04T01:08:26.523Z,3.33
2023-03-04T01:10:53.689Z,4.68
2023-03-04T01:13:20.498Z,3.42
2023-03-04T01:15:47.358Z,5.25
2023-03-04T01:18:14.396Z,4.40
2023-03-04T01:20:41.796Z,4.07
2023-03-04T01:23:08.612Z,5.43
2023-03-04T01:25:35.647Z,5.90
2023-03-04T01:28:02.583Z,3.30
2023-03-04T01:30:29.441Z,3.95
2023-03-04T01:32:56.629Z,2.75
2023-03-04T01:35:23.642Z,4.97
2023-03-04T01:37:50.542Z,4.43
2023-03-04T01:40:17.565Z,4.15
2023-03-04T01:42:44.793Z,4.53
2023-03-04T01:45:15.908Z,5.15
2023-03-04T01:50:34.495Z,3.35
2023-03-04T01:53:02.962Z,3.65
2023-03-04T01:55:31.073Z,3.03
2023-03-04T01:57:58.023Z,5.35
2023-03-04T02:00:31.165Z,5.10
2023-03-04T02:03:19.865Z,4.78
2023-03-04T02:05:49.977Z,3.70
2023-03-04T02:08:20.490Z,3.33
2023-03-04T02:10:48.059Z,2.33
2023-03-04T02:13:15.995Z,3.42
2023-03-04T02:15:45.106Z,3.38
2023-03-04T02:18:21.121Z,3.83
2023-03-04T02:21:23.584Z,3.42
2023-03-04T02:24:06.363Z,2.28
2023-03-04T02:26:35.149Z,2.58
2023-03-04T02:29:03.720Z,2.70
2023-03-04T02:31:32.409Z,3.17
2023-03-04T02:34:06.983Z,3.72
2023-03-04T02:36:36.166Z,2.78
2023-03-04T02:39:13.126Z,3.08
2023-03-04T02:41:40.505Z,2.97
2023-03-04T02:44:18.609Z,3.05
2023-03-04T02:46:46.020Z,4.60
2023-03-04T02:49:13.818Z,3.45
2023-03-04T02:51:40.827Z,2.78
2023-03-04T02:54:22.675Z,2.75
2023-03-04T02:56:51.970Z,3.03
2023-03-04T02:59:22.088Z,3.17
2023-03-04T03:01:50.243Z,4.07
2023-03-04T03:04:17.979Z,3.75
2023-03-04T03:06:45.137Z,3.53
2023-03-04T03:09:11.977Z,2.45
2023-03-04T03:11:40.068Z,2.45
2023-03-04T03:14:07.118Z,4.60
2023-03-04T03:16:34.401Z,3.83
2023-03-04T03:19:01.795Z,2.47
2023-03-04T03:21:30.098Z,3.13
2023-03-04T03:23:56.913Z,3.83
2023-03-04T03:26:24.187Z,3.72
2023-03-04T03:28:51.024Z,2.85
2023-03-04T03:31:18.618Z,2.95
2023-03-04T03:33:47.004Z,3.45
2023-03-04T03:36:14.258Z,3.03
2023-03-04T03:38:41.036Z,2.67
2023-03-04T03:41:07.939Z,2.55
2023-03-04T03:43:34.714Z,2.13
2023-03-04T03:46:01.609Z,2.13
2023-03-04T03:48:28.431Z,2.75
2023-03-04T03:50:55.249Z,3.17
2023-03-04T03:53:22.034Z,3.30
2023-03-04T03:55:48.896Z,2.28
2023-03-04T03:58:15.691Z,3.50
2023-03-04T04:00:42.515Z,3.35
2023-03-04T04:03:14.416Z,2.20
2023-03-04T04:05:41.253Z,2.25
2023-03-04T04:08:09.947Z,2.92
2023-03-04T04:10:37.149Z,2.75
2023-03-04T04:13:03.998Z,2.40
2023-03-04T04:15:30.846Z,3.55
2023-03-04T04:17:57.667Z,1.80
2023-03-04T04:20:26.250Z,1.95
2023-03-04T04:22:53.218Z,2.63
2023-03-04T04:25:20.083Z,3.13
2023-03-04T04:27:46.838Z,1.88
2023-03-04T04:30:14.456Z,2.67
2023-03-04T04:32:41.528Z,2.25
2023-03-04T04:35:08.961Z,2.17
2023-03-04T04:37:35.788Z,1.95
2023-03-04T04:40:03.691Z,2.65
2023-03-04T04:42:30.492Z,1.83
2023-03-04T04:44:57.813Z,2.53
2023-03-04T04:47:24.768Z,2.13
2023-03-04T04:49:51.927Z,1.60
2023-03-04T04:52:18.833Z,2.67
2023-03-04T04:54:45.683Z,1.77
2023-03-04T04:57:12.445Z,2.83
2023-03-04T04:59:39.264Z,2.05
2023-03-04T05:02:06.066Z,2.30
2023-03-04T05:04:32.897Z,2.78
2023-03-04T05:06:59.700Z,2.25
2023-03-04T05:09:26.608Z,2.13
2023-03-04T05:11:53.640Z,1.73
2023-03-04T05:14:20.585Z,2.03
2023-03-04T05:16:47.446Z,3.40
2023-03-04T05:19:14.304Z,1.90
2023-03-04T05:21:41.073Z,2.15
2023-03-04T05:24:08.473Z,1.90
2023-03-04T05:26:35.296Z,1.27
2023-03-04T05:29:02.182Z,1.45
2023-03-04T05:31:29.228Z,2.05
2023-03-04T05:33:56.544Z,1.77
2023-03-04T05:36:24.257Z,1.52
2023-03-04T05:38:51.496Z,1.70
2023-03-04T05:41:22.515Z,1.73
2023-03-04T05:46:19.247Z,1.88
2023-03-04T05:48:46.149Z,1.83
2023-03-04T05:51:12.934Z,2.20
2023-03-04T05:53:41.577Z,2.35
2023-03-04T05:56:13.796Z,1.88
2023-03-04T05:58:41.015Z,2.83
2023-03-04T06:01:07.849Z,1.27
2023-03-04T06:03:35.358Z,1.98
2023-03-04T06:06:02.436Z,1.40
2023-03-04T06:08:29.277Z,1.38
2023-03-04T06:10:57.531Z,1.95
2023-03-04T06:13:24.320Z,1.05
2023-03-04T06:15:59.293Z,1.70
2023-03-04T06:18:28.053Z,0.82
2023-03-04T06:21:00.128Z,1.27
2023-03-04T06:23:27.839Z,1.55
2023-03-04T06:25:56.433Z,1.17
2023-03-04T06:28:23.795Z,1.25
2023-03-04T06:30:55.505Z,1.10
2023-03-04T06:33:23.035Z,1.30
2023-03-04T06:35:55.524Z,0.75
2023-03-04T06:38:22.896Z,1.17
2023-03-04T06:40:49.661Z,1.73
2023-03-04T06:43:16.582Z,1.60
2023-03-04T06:45:43.359Z,1.45
2023-03-04T06:48:10.348Z,0.82
2023-03-04T06:50:39.180Z,2.00
2023-03-04T06:53:06.080Z,1.00
2023-03-04T06:55:32.819Z,0.50
2023-03-04T06:57:59.723Z,0.85
2023-03-04T07:00:26.571Z,1.70
2023-03-04T07:02:55.131Z,1.50
2023-03-04T07:05:22.106Z,0.80
2023-03-04T07:07:49.725Z,1.17
2023-03-04T07:10:18.303Z,2.05
2023-03-04T07:12:45.530Z,1.83
2023-03-04T07:15:12.641Z,1.67
2023-03-04T07:17:39.663Z,1.55
2023-03-04T07:20:07.071Z,1.02
2023-03-04T07:22:33.957Z,1.38
2023-03-04T07:25:00.719Z,0.70
2023-03-04T07:27:27.708Z,1.10
2023-03-04T07:29:54.474Z,1.08
2023-03-04T07:32:21.551Z,1.00
2023-03-04T07:34:48.730Z,1.52
2023-03-04T07:37:15.619Z,0.70
2023-03-04T07:39:42.554Z,1.00
2023-03-04T07:42:09.460Z,1.77
2023-03-04T07:44:40.218Z,0.55
2023-03-04T07:47:07.145Z,1.08
2023-03-04T07:49:34.020Z,1.23
2023-03-04T07:52:04.493Z,1.30
2023-03-04T07:54:41.137Z,0.82
2023-03-04T07:57:08.003Z,1.30
2023-03-04T07:59:35.009Z,0.77
2023-03-04T08:02:04.901Z,1.20
2023-03-04T08:04:31.717Z,0.57
2023-03-04T08:06:58.592Z,1.02
2023-03-04T08:09:25.562Z,0.77
2023-03-04T08:11:52.425Z,1.05
2023-03-04T08:14:19.816Z,0.75
2023-03-04T08:16:46.671Z,2.00
2023-03-04T08:19:18.531Z,1.15
2023-03-04T08:21:46.941Z,0.90
2023-03-04T08:24:14.389Z,1.00
2023-03-04T08:26:50.387Z,0.80
2023-03-04T08:29:21.068Z,1.35
2023-03-04T08:31:49.464Z,1.95
2023-03-04T08:34:18.104Z,1.30
2023-03-04T08:36:44.977Z,1.52
2023-03-04T08:39:14.379Z,1.75
2023-03-04T08:41:42.205Z,1.42
2023-03-04T08:44:13.231Z,1.00
2023-03-04T08:49:12.937Z,1.25
2023-03-04T08:51:40.400Z,0.85
2023-03-04T08:54:07.365Z,0.40
2023-03-04T08:56:34.160Z,1.38
2023-03-04T08:59:01.080Z,1.17
2023-03-04T09:01:28.255Z,1.23
2023-03-04T09:03:55.539Z,1.00
2023-03-04T09:06:22.506Z,1.33
2023-03-04T09:08:49.409Z,0.98
2023-03-04T09:11:16.636Z,1.10
2023-03-04T09:13:43.738Z,0.70
2023-03-04T09:16:12.439Z,1.00
2023-03-04T09:18:40.445Z,1.65
2023-03-04T09:21:08.537Z,1.23
2023-03-04T09:23:36.965Z,1.55
2023-03-04T09:26:22.013Z,0.98
2023-03-04T09:28:57.723Z,0.95
2023-03-04T09:31:26.051Z,1.52
2023-03-04T09:33:54.084Z,1.20
2023-03-04T09:36:21.598Z,1.98
2023-03-04T09:38:48.694Z,1.17
2023-03-04T09:41:49.591Z,1.85
2023-03-04T09:44:39.446Z,1.08
2023-03-04T09:47:15.572Z,1.02
2023-03-04T09:49:52.492Z,1.63
2023-03-04T09:52:19.278Z,0.95
2023-03-04T09:55:25.687Z,1.88
2023-03-04T09:58:23.054Z,1.05
2023-03-04T10:00:58.174Z,1.45
2023-03-04T10:03:33.407Z,1.23
2023-03-04T10:06:09.866Z,1.10
2023-03-04T10:08:59.350Z,1.20
2023-03-04T10:11:44.177Z,1.08
2023-03-04T10:14:23.347Z,1.13
2023-03-04T10:16:56.378Z,0.93
2023-03-04T10:19:49.223Z,1.65
2023-03-04T10:22:34.759Z,1.52
2023-03-04T10:25:21.629Z,1.42
2023-03-04T10:28:15.227Z,0.95
2023-03-04T10:30:56.246Z,2.08
2023-03-04T10:33:27.126Z,1.10
2023-03-04T10:36:06.655Z,1.42
2023-03-04T10:38:36.910Z,1.27
2023-03-04T10:41:16.987Z,1.10
2023-03-04T10:43:49.737Z,1.55
2023-03-04T10:46:16.936Z,0.63
2023-03-04T10:48:44.808Z,1.42
2023-03-04T10:51:22.253Z,0.90
2023-03-04T10:53:51.849Z,0.93
2023-03-04T10:56:31.140Z,1.15
2023-03-04T10:59:36.158Z,1.00
2023-03-04T11:02:27.022Z,0.98
2023-03-04T11:05:12.305Z,0.90
2023-03-04T11:07:58.405Z,0.70
2023-03-04T11:10:37.537Z,2.20
2023-03-04T11:13:17.393Z,1.60
2023-03-04T11:16:05.266Z,1.02
2023-03-04T11:18:43.645Z,0.80
2023-03-04T11:21:26.533Z,1.02
2023-03-04T11:23:57.226Z,1.50
2023-03-04T11:26:31.073Z,0.90
2023-03-04T11:29:13.190Z,0.88
2023-03-04T11:31:49.146Z,1.30
2023-03-04T11:34:20.089Z,0.77
2023-03-04T11:37:03.585Z,1.27
2023-03-04T11:39:46.949Z,1.00
2023-03-04T11:42:24.975Z,0.73
2023-03-04T11:44:52.523Z,1.08
2023-03-04T11:47:36.509Z,1.30
2023-03-04T11:50:26.488Z,0.75
2023-03-04T11:53:06.217Z,0.93
2023-03-04T11:55:57.651Z,1.58
2023-03-04T11:58:35.489Z,1.50
2023-03-04T12:01:23.408Z,0.90
2023-03-04T12:04:03.564Z,1.30
2023-03-04T12:06:52.049Z,0.65
2023-03-04T12:09:46.572Z,1.23
2023-03-04T12:12:32.271Z,1.23
2023-03-04T12:15:14.104Z,1.00
2023-03-04T12:17:56.861Z,1.30
2023-03-04T12:20:46.701Z,1.58
2023-03-04T12:23:27.979Z,1.17
2023-03-04T12:26:36.706Z,0.90
2023-03-04T12:29:07.535Z,0.85
2023-03-04T12:31:41.476Z,0.82
2023-03-04T12:34:16.191Z,1.20
2023-03-04T12:37:01.128Z,1.25
2023-03-04T12:39:34.243Z,1.00
2023-03-04T12:42:04.089Z,0.70
2023-03-04T12:44:55.189Z,1.52
2023-03-04T12:50:44.815Z,1.70
2023-03-04T12:53:17.743Z,0.95
2023-03-04T12:55:47.333Z,1.17
2023-03-04T12:58:22.047Z,1.58
2023-03-04T13:00:48.926Z,1.02
2023-03-04T13:03:34.898Z,1.73
2023-03-04T13:06:19.982Z,0.90
2023-03-04T13:09:04.932Z,1.60
2023-03-04T13:11:47.443Z,1.25
2023-03-04T13:14:18.654Z,1.20
2023-03-04T13:16:56.150Z,1.35
2023-03-04T13:19:46.371Z,1.17
2023-03-04T13:22:35.053Z,1.15
2023-03-04T13:25:30.358Z,1.55
2023-03-04T13:28:11.302Z,1.50
2023-03-04T13:30:42.730Z,1.33
2023-03-04T13:33:09.666Z,1.60
2023-03-04T13:35:54.803Z,1.27
2023-03-04T13:38:28.055Z,1.27
2023-03-04T13:41:19.622Z,3.03
2023-03-04T13:43:56.420Z,1.83
2023-03-04T13:46:23.611Z,1.05
2023-03-04T13:48:50.507Z,1.77
2023-03-04T13:51:41.527Z,1.20
2023-03-04T13:54:23.988Z,3.42
2023-03-04T13:57:22.286Z,0.95
2023-03-04T13:59:55.589Z,1.92
2023-03-04T14:02:25.999Z,1.27
2023-03-04T14:05:01.040Z,2.85
2023-03-04T14:07:36.787Z,1.10
2023-03-04T14:10:12.793Z,1.02
2023-03-04T14:12:54.798Z,1.17
2023-03-04T14:15:23.517Z,1.25
2023-03-04T14:17:57.502Z,1.20
2023-03-04T14:20:33.108Z,1.08
2023-03-04T14:23:01.804Z,1.55
2023-03-04T14:25:36.575Z,0.70
2023-03-04T14:28:03.782Z,1.30
2023-03-04T14:30:42.208Z,1.30
2023-03-04T14:33:21.936Z,1.20
2023-03-04T14:35:55.114Z,1.65
2023-03-04T14:38:35.226Z,0.88
2023-03-04T14:41:19.053Z,1.88
2023-03-04T14:44:09.344Z,1.33
2023-03-04T14:47:07.483Z,1.70
2023-03-04T14:49:37.550Z,1.33
2023-03-04T14:52:04.785Z,1.65
2023-03-04T14:54:41.079Z,0.80
2023-03-04T14:57:22.198Z,1.10
2023-03-04T15:02:38.509Z,0.98
2023-03-04T15:05:17.447Z,1.00
2023-03-04T15:07:54.462Z,2.03
2023-03-04T15:10:25.440Z,1.90
2023-03-04T15:15:36.159Z,1.38
2023-03-04T15:18:22.730Z,0.85
2023-03-04T15:21:04.640Z,0.88
2023-03-04T15:23:33.469Z,1.27
2023-03-04T15:26:03.394Z,1.13
2023-03-04T15:28:44.095Z,1.80
2023-03-04T15:31:22.572Z,1.35
2023-03-04T15:33:50.142Z,1.70
2023-03-04T15:36:20.619Z,1.17
2023-03-04T15:38:52.640Z,1.30
2023-03-04T15:41:24.194Z,1.33
2023-03-04T15:43:51.872Z,2.10
2023-03-04T15:46:19.488Z,1.70
2023-03-04T15:48:48.892Z,1.38
2023-03-04T15:51:22.316Z,0.98
2023-03-04T15:53:55.537Z,1.45
2023-03-04T15:56:25.714Z,1.38
2023-03-04T15:59:06.283Z,0.90
2023-03-04T16:01:33.186Z,1.00
2023-03-04T16:04:00.085Z,1.35
2023-03-04T16:06:30.708Z,1.30
2023-03-04T16:08:58.918Z,0.93
2023-03-04T16:11:28.425Z,1.02
2023-03-04T16:13:55.359Z,0.70
2023-03-04T16:16:22.457Z,0.73
2023-03-04T16:18:49.326Z,1.02
2023-03-04T16:21:20.171Z,1.27
2023-03-04T16:23:49.759Z,1.52
2023-03-04T16:26:23.131Z,1.48
2023-03-04T16:28:51.660Z,0.90
2023-03-04T16:31:19.374Z,2.10
2023-03-04T16:33:46.282Z,1.10
2023-03-04T16:36:20.819Z,1.27
2023-03-04T16:38:48.636Z,1.90
2023-03-04T16:41:16.721Z,1.30
2023-03-04T16:43:44.049Z,1.20
2023-03-04T16:46:12.929Z,1.27
2023-03-04T16:48:40.306Z,1.25
2023-03-04T16:51:19.534Z,1.55
2023-03-04T16:53:56.308Z,1.10
2023-03-04T16:56:23.973Z,1.48
2023-03-04T16:58:50.939Z,1.52
2023-03-04T17:01:19.692Z,1.20
2023-03-04T17:03:46.901Z,1.40
2023-03-04T17:06:15.091Z,1.08
2023-03-04T17:08:42.708Z,1.83
2023-03-04T17:11:13.262Z,0.75
2023-03-04T17:13:40.100Z,1.55
2023-03-04T17:16:07.059Z,2.10
2023-03-04T17:18:34.005Z,1.05
2023-03-04T17:21:04.979Z,1.38
2023-03-04T17:23:32.233Z,1.00
2023-03-04T17:25:59.623Z,0.90
2023-03-04T17:28:27.048Z,0.95
2023-03-04T17:30:54.060Z,1.63
2023-03-04T17:33:21.583Z,1.30
2023-03-04T17:35:48.508Z,0.80
2023-03-04T17:38:16.312Z,1.33
2023-03-04T17:40:43.678Z,1.23
2023-03-04T17:43:13.959Z,0.82
2023-03-04T17:45:42.044Z,0.77
2023-03-04T17:48:15.218Z,1.40
2023-03-04T17:50:49.801Z,1.13
2023-03-04T17:53:17.216Z,1.00
2023-03-04T17:55:52.652Z,1.85
2023-03-04T17:58:20.095Z,1.50
2023-03-04T18:00:47.395Z,1.88
2023-03-04T18:03:15.167Z,1.55
2023-03-04T18:05:42.704Z,1.20
2023-03-04T18:08:09.521Z,0.70
2023-03-04T18:10:36.445Z,1.23
2023-03-04T18:13:03.810Z,0.93
2023-03-04T18:15:31.076Z,1.17
2023-03-04T18:17:57.886Z,3.13
2023-03-04T18:20:24.717Z,2.53
2023-03-04T18:22:51.868Z,1.48
2023-03-04T18:25:18.935Z,1.10
2023-03-04T18:27:45.854Z,1.42
2023-03-04T18:30:18.163Z,1.77
2023-03-04T18:32:51.723Z,1.60
2023-03-04T18:35:20.794Z,1.60
2023-03-04T18:37:48.975Z,1.45
2023-03-04T18:40:16.518Z,1.92
2023-03-04T18:42:46.294Z,1.33
2023-03-04T18:45:14.278Z,1.38
2023-03-04T18:47:44.065Z,1.73
2023-03-04T18:50:12.604Z,0.65
2023-03-04T18:52:40.003Z,1.65
2023-03-04T18:55:07.319Z,0.65
2023-03-04T18:57:34.737Z,1.23
2023-03-04T19:00:04.073Z,1.13
2023-03-04T19:02:47.957Z,1.27
2023-03-04T19:05:19.942Z,1.00
2023-03-04T19:07:47.323Z,1.20
2023-03-04T19:10:14.632Z,0.77
2023-03-04T19:12:41.649Z,1.52
2023-03-04T19:15:10.200Z,1.35
2023-03-04T19:17:37.853Z,1.40
2023-03-04T19:20:06.870Z,1.55
2023-03-04T19:22:34.183Z,1.42
2023-03-04T19:25:01.054Z,0.90
2023-03-04T19:27:27.906Z,0.98
2023-03-04T19:29:54.719Z,1.20
2023-03-04T19:32:21.630Z,0.70
2023-03-04T19:34:48.626Z,0.70
2023-03-04T19:37:16.328Z,0.98
2023-03-04T19:39:43.923Z,1.75
2023-03-04T19:42:12.103Z,0.57
2023-03-04T19:44:39.481Z,0.88
2023-03-04T19:47:06.447Z,1.05
2023-03-04T19:49:33.762Z,0.95
2023-03-04T19:52:01.336Z,1.50
2023-03-04T19:54:28.939Z,2.90
2023-03-04T19:56:55.816Z,0.98
2023-03-04T19:59:22.719Z,1.67
2023-03-04T20:01:49.716Z,1.35
2023-03-04T20:04:19.653Z,1.00
2023-03-04T20:06:48.921Z,0.80
2023-03-04T20:09:17.367Z,1.50
2023-03-04T20:11:57.110Z,1.58
2023-03-04T20:14:25.235Z,0.55
2023-03-04T20:16:52.063Z,0.82
2023-03-04T20:19:18.944Z,2.05
2023-03-04T20:21:45.702Z,1.27
2023-03-04T20:24:13.014Z,1.50
2023-03-04T20:26:39.769Z,1.48
2023-03-04T20:29:06.652Z,1.08
2023-03-04T20:31:38.352Z,1.17
2023-03-04T20:34:06.018Z,1.08
2023-03-04T20:36:33.106Z,1.08
2023-03-04T20:39:03.293Z,2.10
2023-03-04T20:41:37.989Z,1.40
2023-03-04T20:44:06.387Z,1.30
2023-03-04T20:46:46.063Z,0.57
2023-03-04T20:49:24.767Z,0.98
2023-03-04T20:51:53.537Z,0.88
2023-03-04T20:54:20.869Z,0.73
2023-03-04T20:56:48.277Z,2.90
2023-03-04T20:59:15.461Z,1.08
2023-03-04T21:01:44.380Z,1.33
2023-03-04T21:04:11.779Z,1.30
2023-03-04T21:06:39.497Z,2.22
2023-03-04T21:09:09.026Z,1.02
2023-03-04T21:11:40.344Z,1.17
2023-03-04T21:14:15.286Z,1.83
2023-03-04T21:16:42.266Z,1.63
2023-03-04T21:19:18.749Z,1.33
2023-03-04T21:21:46.709Z,1.63
2023-03-04T21:24:16.169Z,1.75
2023-03-04T21:26:45.276Z,1.90
2023-03-04T21:29:12.992Z,3.55
2023-03-04T21:31:43.329Z,2.38
2023-03-04T21:34:17.563Z,2.70
2023-03-04T21:36:45.001Z,0.98
2023-03-04T21:39:17.045Z,1.25
2023-03-04T21:41:44.078Z,0.98
2023-03-04T21:44:18.189Z,0.82
2023-03-04T21:47:00.115Z,2.47
2023-03-04T21:49:27.680Z,0.90
2023-03-04T21:51:54.639Z,1.05
2023-03-04T21:54:21.737Z,1.00
2023-03-04T21:56:50.180Z,0.70
2023-03-04T21:59:20.142Z,1.80
2023-03-04T22:01:47.121Z,0.70
2023-03-04T22:04:13.957Z,1.20
2023-03-04T22:06:41.497Z,0.90
2023-03-04T22:09:09.551Z,0.80
2023-03-04T22:11:36.450Z,0.98
2023-03-04T22:14:03.847Z,0.70
2023-03-04T22:16:31.743Z,0.90
2023-03-04T22:18:59.483Z,0.90
2023-03-04T22:21:26.419Z,1.58
2023-03-04T22:23:53.282Z,0.40
2023-03-04T22:26:26.759Z,0.70
2023-03-04T22:28:53.587Z,1.13
2023-03-04T22:31:32.261Z,0.95
2023-03-04T22:34:18.580Z,0.77
2023-03-04T22:36:46.574Z,0.20
2023-03-04T22:39:16.059Z,0.77
2023-03-04T22:41:43.010Z,0.25
2023-03-04T22:44:09.748Z,0.30
2023-03-04T22:46:38.625Z,0.50
2023-03-04T22:49:12.323Z,0.30
2023-03-04T22:51:43.361Z,0.52
2023-03-04T22:54:13.416Z,0.75
2023-03-04T22:56:40.266Z,0.68
2023-03-04T22:59:07.235Z,0.60
2023-03-04T23:01:34.344Z,0.90
2023-03-04T23:04:01.283Z,0.50
2023-03-04T23:06:30.222Z,1.48
2023-03-04T23:08:58.362Z,1.30
2023-03-04T23:11:31.612Z,0.55
2023-03-04T23:14:02.002Z,0.52
2023-03-04T23:16:28.897Z,1.30
2023-03-04T23:18:57.670Z,0.70
2023-03-04T23:21:28.043Z,1.17
2023-03-04T23:23:54.916Z,0.60
2023-03-04T23:26:25.506Z,1.95
2023-03-04T23:28:53.187Z,0.75
2023-03-04T23:31:20.022Z,1.00
2023-03-04T23:33:48.388Z,0.60
2023-03-04T23:36:18.276Z,0.25
2023-03-04T23:38:47.344Z,0.82
2023-03-04T23:41:19.514Z,1.00
2023-03-04T23:43:46.902Z,0.82
2023-03-04T23:46:14.243Z,0.50
2023-03-04T23:48:47.973Z,0.40
2023-03-04T23:51:17.186Z,1.23
2023-03-04T23:53:44.007Z,0.57
2023-03-04T23:56:16.466Z,1.75
2023-03-04T23:58:44.327Z,0.85
